Timeline UpdatesTrip UpdatesNews PostsPvt Posts♥♥Travel TipsAdmin PostsConv PostsFollowed PostsChat RequestsBlog PostsPNR Posts

Disclaimer
Search
 
 
Mon Nov 24, 2014 12:27:02 ISTHomeTrainsΣChainsAtlasPNRForumGalleryNewsFAQTripsMembersLoginFeedback
No Recent News for this Train
Other Trains in the News **new
Latest...
Short Originate from Gaya from 15/10/14-20/10/14 #1245502
Wed Oct 15, 2014 (09:33PM)
⇐ Return Journey: Train# 53521

53522/Varanasi-Asansol Passenger (UnReserved)

Time-Table HAS CHANGED.
Oct 15 2014 (9:33PM)
Change Departure Station:
Change Arrival Station:
Post a Train Travel TipPost a Train Travel Tip **new
Post a Comment/Question/Picture/VideoPost a Comment/Question/Picture/Video
Pantry/Catering
✕ NO Pantry Car
✕ NO Catering
RSA - Rake Sharing
Rake/Coach Composition
Loco
WAG 7 LDH
News    PNR    Forum    Time-Table    Availability    Fare Chart    Map    Arr/Dep History    Trips    Gallery    ΣChains    X/O    Timeline    
Travel Time: 16h 35m    80 halts    Distance: 480 km    Avg Speed: 28 km/hr
Type: Passenger
Zone: ER/Eastern
Departs @ 04:25 (Avg 1m late)
Platform# 1
SMTWTFS
Varanasi Junction/BSB 
Arrives @ 21:00 (Avg 1h 29m late)
Platform# ???
SMTWTFS
Asansol Junction/ASN 

80 halts. 86 intermediate Stations between Varanasi Junction and Asansol Junction

Show ALL intermediate Stations  Show Old Time-Table

#TrkCodeStation NameX/OArrivesAvgDepartsAvgHaltPFDay#KmSpeedElevZoneAddress
1%==%BSBVaranasi Junction (9)»  -04:25+1110.02782mNRVaranasi 221002, Uttar Pradesh
2/==/KEIKashi (3)  04:37+504:38+61m--15.32485mNRVaranasi, Uttar Pradesh
3/==/VYNVyasnagar  04:51+604:52+91m--110.61281mNRNational Highway 2, Uttar Pradesh
4/==/MGSMughal Sarai Junction (8)X  05:20+605:30+910m--116.34883mECRDistt: Chandauli Pin 232101, Uttar Pradesh
5/==/GAQGanj Khawaja (3)  05:40 05:41+4105:42+432 1m--125.15779mECRGanj Khwaja, Uttar Pradesh
6/==/CDMRChandauli Majhwar (5)X  05:50 05:51+5005:52+572 1m--133.77279mECRNational Highway 2, Uttar Pradesh
7/==/SYJSaidraja (5)X  05:59+1:0506:01+1:062m--142.16280mECRSaiyedraja, Uttar Pradesh
8/==/KMSKaramnasa (4)  06:08 06:09+1:0606:10+1:142 1m--150.35378mECRNational Highway 2, Uttar Pradesh
9/==/DCXDhanaichha (2)XO  06:16 06:17+1:1306:18+1:142 1m--156.53275mECRNational Highway 2, Bihar
10/==/DGODurgautiX  06:25 06:28+1:1206:27 06:29+1:212 1m--161.92778mECRDistt Kaimur, Bihar
11/==/BBUBhabua Road (4)  06:49+1:0806:51 06:50+1:132 1m--170.81680mECR06187-222222, Bihar
12/==/MTGEMuthaniX  06:58 07:10+1:0407:00 07:11+1:112 1m--176.35383mECRNational Highway 2, Bihar
13/==/PSEPusauliX  07:08 07:20+1:1207:10 07:21+1:162 1m--184.26086mECRDistt: Rohtas, Bihar
14/==/KTQKudra (2)XO  07:22 07:30+1:1707:24 07:31+1:212 1m--193.25292mECRKudra, Bihar
15/==/KVDKhurmabad RoadX  07:31 07:39+1:2107:33 07:40+1:222 1m--1100.14193mECRKhurmabad, Bihar
16/==/SSGShiu Sagar RoadXO  07:40 07:47+1:2307:42 07:48+1:232 1m--1104.94299mECRShiu Sagar Rd, Bihar
17/==/KMGEKumahuXO  07:50 07:56+1:2307:52 07:57+1:352 1m--1110.59101mECRKamahu, Bihar
18/==/SSMSasaram Junction (4)  08:05 08:48+1:0708:07 08:49+1:112 1m31118.433111mECR06184-222051, Bihar
19/==/KWDKarwandia  08:13 09:01+1:0108:15 09:02+1:132 1m--1124.950112mECRKarwandiya, Bihar
20/==/PHEPahaleja Halt  08:22 09:10+1:1308:24 09:11+1:152 1m--1131.634112mECRPahaleja, Bihar
21/==/DOSDehri On Sone (6)  08:35 09:19+1:1508:40 09:24+1:215m--1136.149114mECRRohtas(06184-253154), Bihar
22/==/SEBSon Nagar Junction (4)X  08:48 09:31+1:2908:50 09:32+1:302 1m21141.858110mECRBarun, Bihar
23/==/CPBHChiraila  08:57 09:38+1:3208:59 09:39+1:332 1m21147.643104mECRBarun, Bihar
24/==/AUBRAnugraha Narayan Road (4)  09:06 09:46+1:3109:08 09:47+1:342 1m31152.7107104mECR06186-285271, Bihar
25/==/PESPhesar  09:20 09:52+1:4509:22 09:53+1:462 1m21161.619104mECRpheshar, Bihar
26/==/BHKHBaghoi Kusa  09:29 10:07+1:3809:31 10:08+1:392 1m--1166.14998mECRbel Rd, Bihar
27/==/JHNJakhim  10:17 10:16+1:3910:19 10:17+1:442 1m--1172.73893mECRbel Rd, Bihar
28/==/DORDDeo Road  10:25 10:23+1:4310:27 10:24+1:442 1m--1176.453102mECRMaluk Bigha, Bihar
29/==/RFJRafiGanj (4)X  10:45 10:32+5910:47 10:33+1:002 1m--1183.526102mECRRafiganj, Bihar
30/==/IMGEIsmailpur  10:55 10:54+1:3610:57 10:55+1:372 1m--1192.852114mECRState Highway 69, Bihar
31/==/GRRUGuraru  11:04 11:03+1:3811:06 11:04+1:442 1m21199.645114mECRGuraru, Bihar
32/==/PRYParaiyaO  11:13 11:12+1:4411:15 11:13+1:512 1m--1205.627111mECRparaiya station Rd, Bihar
33/==/KSTAKastha  11:28 11:29+1:4111:30+1:452 1m--1212.736113mECRGaya, Bihar
34/==/GAYAGaya Junction (9)  11:44+1:1811:54+1:1810m21221.117117mECR0631-2220283, Bihar
35/==/MPOManpur Junction (4)  12:13+1:3912:15+1:482m--1226.462113mECRGaya, Bihar
36/==/BNFBandhuaX  12:17 12:22+1:4912:27 12:24+1:5410 2m--1233.646124mECRState Highway 70, Bihar
37/==/TKNTankuppa  12:34+1:5512:36+1:542m--1241.252127mECRState Highway 70, Bihar
38/==/BNSLBansinala Halt  12:43+1:5412:44+1:551m--1247.353135mECRBansinala, Bihar
39/==/PRPPaharpurX  12:51+1:5512:52+2:031m--1253.554150mECRGaya, Bihar
40/==/GAPGurpa (4)  13:05+2:0513:06+2:051m--1265.229192mECRLodhwe, Bihar
41/==/YGMYadugram Block Hut  13:13+2:3713:14+2:371m--1268.536210mECRYadugram Block Hut, Jharkhand
42/==/BSCPBaskatwa B. H. new halt!!  13:22+1:5913:23+2:001m--1273.317273mECRMurli, Bihar
43/==/NGYNath Ganj  13:28+2:0113:29+2:021m--1274.746284mECRMurli, Bihar
44/==/DLWDilwa (2)X  13:37+2:0213:38+2:171m--1280.930346mECRNational Highway 31, Bihar
45/==/LBZLalbag Block Hut  13:47+2:0313:48+2:031m--1285.426389mECRState Highway 70, Bihar
46/==/GJDGujhandi (4)X  13:53+2:1713:54+2:201m--1287.654386mECRNational Highway 31, Jharkhand
47/==/KQRKoderma Junction (7)  14:06 14:05+2:0114:07+2:021 2m--1297.528399mECR06534-222410 Koderma, Jharkhand
48/==/LRBLarabad  14:17+2:2114:18+2:221m--1302.139393mECRJhumri Telaiya, Jharkhand
49/==/HREHirodih (4)  14:25+2:2214:26+2:271m--1306.752374mECRJhumri Telaiya, Jharkhand
50/==/SMNDSarmatanr (4)  14:35+2:2514:36+2:251m--1314.534351mECRKoderma, Jharkhand
51/==/YDDYadudih (2)  14:43+2:2514:44+2:251m--1318.455352mECRNational Highway 2, Jharkhand
52/==/PSBParsabad (4)  14:50+2:2414:51+2:251m--1323.965346mECRNational Highway 2, Jharkhand
53/==/DSMEDasara (2)X  14:57+2:2614:58+2:261m--1330.449342mECRSariya - Parsiya Road, Jharkhand
54/==/CBHChaube (4)O  15:04+2:2615:06+2:302m--1335.312325mECRParsabad, Jharkhand
55/==/KSHRKeshwari  15:27 15:31+2:1215:28 15:32+2:121m--1340.257313mECRMandramo, Jharkhand
56/==/HZDHazaribagh Road (4)  15:34 15:38+1:4615:35 15:39+1:481m--1345.852330mECRHazaribagh, Jharkhand
57/==/GRBHGarea Bihar new halt!!  15:47+2:1515:48+2:151m--1352.817315mECRSariya - Parsiya Rd, Jharkhand
58/==/CCKChichaki (4)  15:50 15:55+2:1515:51 15:56+2:151m--1354.819308mECRNational Highway 2, Jharkhand
59|--|KRMBKarmabad new halt!!  16:00+2:1616:02+2:152m--1356.08323m???Koyridih, Jharkhand
60/==/CDBChaudhribandh (4)XO  16:10+2:1316:12+2:122m--1357.09337mECRMaipatoli, Jharkhand
61/==/CEMEChegroXO  16:42+1:4916:43+1:481m--1361.343333mECRBeko, Jharkhand
62/==/PNMEParasnath (5)  17:03 17:01+1:1017:08 17:03+1:105 2m--1374.338282mECRGiridih 06532-233419, Jharkhand
63/==/NMGNimiaghat (4)  17:15+1:3217:16+1:321m--1381.956268mECRNational Highway 2, Jharkhand
64/==/BLMEBholldih (2)X  17:22+1:3217:23+1:321m--1387.513241mECRGomoh, Jharkhand
65/==/GMONetaji SC Bose Gomoh Junction (6)X  17:45+1:1817:55+1:2010m--1392.452239mECRGomoh, Jharkhand
66/==/MRQMatari (3)  18:06+1:5218:07+1:521m--1401.853246mECRDhanbad, Jharkhand
67/==/NPJENichitpur (2)  18:13+1:5218:14+1:531m--1407.150224mECRKatras, Jharkhand
68/==/TETTetulmari (2)  18:21+1:5318:22+1:531m--1413.032225mECRTetulmari, Jharkhand
69/==/BHNBhuli (2)  18:32+1:5118:33+1:511m--1418.37230mECRKusunda, Jharkhand
70/==/DHNDhanbad Junction (9)X  19:05+1:0619:15+1:0610m--1422.145235mECR2319801. Div. HQ ECR, Jharkhand
71/==/DOKMDokra Halt (2)  19:22+1:3219:23+1:331m--1427.438211mECRDokra, Jharkhand
72/==/PKAPradhankhunta Junction (3)X  19:29+1:3419:30+1:361m--1431.246202mECRDhanbad, Jharkhand
73/==/CAMChhota Ambana (3)X  19:38+1:4619:39+1:461m--1437.490200mERDhanbad, Jharkhand
74/==/KAOKalubathan (2)  19:45+1:4919:46+1:491m--1446.451195mERDhanbad, Jharkhand
75/==/TNWThapar Nagar (2)X  19:51+1:5119:52+1:511m--1450.753144mERDhanbad, Jharkhand
76/==/MMUMugma (3)  19:58+1:5219:59+1:531m--1456.056135mERNational Highway 2, Jharkhand
77/==/KMMEKumardubi (2)X  20:04+2:2420:05+2:241m--1460.638135mERDhanbad - 828203(06540-222077), Jharkhand
78/==/BRRBarakar (2)O  20:09+1:5620:10+1:571m--1463.149129mERDist. Bardhaman, West Bengal
79/==/ULTKulti (3)X  20:14+1:5920:15+2:011m--1466.412148mERdist - bardhaman, West Bengal
80/==/STNSitarampur Junction (5)X  20:40+1:4120:41+1:451m21471.637139mERG T Rd Before Asansol, West Bengal
81/==/BCQBarachak Junction (4)  20:47+1:5220:48+1:521m--1475.325127mERdist - bardhaman, West Bengal
82/==/ASNAsansol Junction (7)•  21:00+1:29---1480.3-113mERDist - Bardhaman, West Bengal
Scroll to Top
Scroll to Bottom